createdAt,value
2022-12-04T08:03:11.837Z,98598.91
2022-12-04T08:06:23.533Z,98596.84
2022-12-04T08:09:33.286Z,98598.59
2022-12-04T08:12:42.987Z,98605.31
2022-12-04T08:15:52.859Z,98600.97
2022-12-04T08:19:03.977Z,98601.63
2022-12-04T08:22:13.768Z,98604.78
2022-12-04T08:25:23.430Z,98600.56
2022-12-04T08:28:33.651Z,98603.00
2022-12-04T08:31:43.389Z,98601.72
2022-12-04T08:34:56.095Z,98601.28
2022-12-04T08:38:05.869Z,98592.47
2022-12-04T08:41:17.346Z,98605.94
2022-12-04T08:44:27.245Z,98592.41
2022-12-04T08:47:36.933Z,98593.38
2022-12-04T08:50:47.867Z,98587.81
2022-12-04T08:54:00.561Z,98593.19
2022-12-04T08:57:10.281Z,98597.44
2022-12-04T09:00:20.639Z,98598.25
2022-12-04T09:03:31.148Z,98596.16
2022-12-04T09:06:42.557Z,98601.22
2022-12-04T09:09:52.364Z,98598.91
2022-12-04T09:13:02.291Z,98606.69
2022-12-04T09:16:17.064Z,98590.31
2022-12-04T09:19:26.767Z,98589.41
2022-12-04T09:23:02.046Z,98587.91
2022-12-04T09:26:19.693Z,98588.13
2022-12-04T09:29:29.597Z,98601.53
2022-12-04T09:32:39.674Z,98594.66
2022-12-04T09:35:49.424Z,98589.44
2022-12-04T09:39:00.366Z,98582.34
2022-12-04T09:42:26.532Z,98588.78
2022-12-04T09:45:45.256Z,98581.59
2022-12-04T09:48:58.341Z,98584.47
2022-12-04T09:52:21.821Z,98577.41
2022-12-04T09:55:37.685Z,98586.22
2022-12-04T09:58:52.739Z,98579.63
2022-12-04T10:02:14.589Z,98583.16
2022-12-04T10:05:35.045Z,98579.16
2022-12-04T10:08:47.335Z,98579.94
2022-12-04T10:12:08.709Z,98589.59
2022-12-04T10:15:30.725Z,98592.78
2022-12-04T10:18:49.880Z,98585.13
2022-12-04T10:22:11.938Z,98580.41
2022-12-04T10:25:24.066Z,98579.06
2022-12-04T10:28:39.981Z,98570.94
2022-12-04T10:31:54.200Z,98568.53
2022-12-04T10:35:17.066Z,98562.88
2022-12-04T10:38:34.694Z,98566.81
2022-12-04T10:41:50.022Z,98565.34
2022-12-04T10:45:01.216Z,98562.81
2022-12-04T10:48:21.790Z,98562.81
2022-12-04T10:51:39.441Z,98555.91
2022-12-04T10:54:52.970Z,98546.09
2022-12-04T10:58:03.581Z,98535.72
2022-12-04T11:01:15.615Z,98526.44
2022-12-04T11:04:27.586Z,98521.06
2022-12-04T11:07:44.177Z,98511.53
2022-12-04T11:10:58.252Z,98519.34
2022-12-04T11:14:15.011Z,98523.66
2022-12-04T11:17:26.001Z,98536.88
2022-12-04T11:20:35.967Z,98530.91
2022-12-04T11:23:48.772Z,98531.50
2022-12-04T11:26:59.240Z,98537.22
2022-12-04T11:30:11.739Z,98525.56
2022-12-04T11:33:29.665Z,98519.59
2022-12-04T11:36:41.911Z,98506.91
2022-12-04T11:39:53.381Z,98510.00
2022-12-04T11:43:06.211Z,98516.44
2022-12-04T11:46:22.188Z,98516.16
2022-12-04T11:49:34.056Z,98509.50
2022-12-04T11:52:56.976Z,98517.41
2022-12-04T11:56:18.171Z,98514.41
2022-12-04T11:59:40.948Z,98517.84
2022-12-04T12:03:03.676Z,98531.22
2022-12-04T12:06:27.412Z,98529.16
2022-12-04T12:09:45.275Z,98521.44
2022-12-04T12:13:01.398Z,98523.53
2022-12-04T12:16:20.395Z,98523.56
2022-12-04T12:19:44.643Z,98515.78
2022-12-04T12:23:16.922Z,98517.28
2022-12-04T12:26:38.896Z,98519.06
2022-12-04T12:30:01.065Z,98518.31
2022-12-04T12:33:20.035Z,98511.63
2022-12-04T12:36:40.008Z,98515.81
2022-12-04T12:40:01.132Z,98521.47
2022-12-04T12:43:15.601Z,98519.22
2022-12-04T12:46:31.062Z,98515.47
2022-12-04T12:49:48.695Z,98514.75
2022-12-04T12:53:02.709Z,98509.22
2022-12-04T12:56:14.962Z,98513.72
2022-12-04T12:59:28.376Z,98505.63
2022-12-04T13:02:44.121Z,98515.78
2022-12-04T13:05:56.980Z,98504.16
2022-12-04T13:09:16.551Z,98510.72
2022-12-04T13:12:28.547Z,98511.03
2022-12-04T13:15:42.646Z,98507.16
2022-12-04T13:19:01.266Z,98493.25
2022-12-04T13:22:19.431Z,98499.97
2022-12-04T13:25:41.090Z,98494.47
2022-12-04T13:28:58.495Z,98485.34
2022-12-04T13:32:30.068Z,98477.88
2022-12-04T13:36:03.112Z,98467.31
2022-12-04T13:39:31.171Z,98463.56
2022-12-04T13:42:41.078Z,98455.25
2022-12-04T13:45:55.052Z,98441.22
2022-12-04T13:49:10.266Z,98437.03
2022-12-04T13:52:24.957Z,98436.72
2022-12-04T13:55:37.271Z,98429.41
2022-12-04T13:58:47.149Z,98440.16
2022-12-04T14:02:06.459Z,98445.25
2022-12-04T14:05:25.953Z,98455.69
2022-12-04T14:08:40.959Z,98450.75
2022-12-04T14:11:55.184Z,98459.41
2022-12-04T14:15:07.643Z,98464.78
2022-12-04T14:18:28.035Z,98452.25
2022-12-04T14:21:41.957Z,98442.09
2022-12-04T14:24:51.582Z,98456.69
2022-12-04T14:28:01.713Z,98458.16
2022-12-04T14:31:21.168Z,98454.59
2022-12-04T14:34:33.999Z,98449.25
2022-12-04T14:37:48.969Z,98451.19
2022-12-04T14:40:59.032Z,98455.66
2022-12-04T14:44:23.186Z,98457.00
2022-12-04T14:47:43.776Z,98463.22
2022-12-04T14:51:03.951Z,98467.28
2022-12-04T14:54:22.123Z,98468.31
2022-12-04T14:57:46.642Z,98473.06
2022-12-04T15:00:59.020Z,98486.50
2022-12-04T15:04:16.912Z,98486.19
2022-12-04T15:07:32.210Z,98492.31
2022-12-04T15:11:01.420Z,98486.50
2022-12-04T15:14:15.054Z,98476.63
2022-12-04T15:17:25.669Z,98482.00
2022-12-04T15:20:43.148Z,98476.81
2022-12-04T15:23:55.744Z,98470.69
2022-12-04T15:27:08.006Z,98477.84
2022-12-04T15:30:33.352Z,98480.81
2022-12-04T15:33:47.051Z,98484.09
2022-12-04T15:37:03.613Z,98483.78
2022-12-04T15:40:22.947Z,98470.97
2022-12-04T15:43:41.069Z,98486.19
2022-12-04T15:46:52.383Z,98490.81
2022-12-04T15:50:12.536Z,98490.22
2022-12-04T15:53:28.742Z,98489.81
2022-12-04T15:56:40.756Z,98491.03
2022-12-04T15:59:53.083Z,98481.31
2022-12-04T16:03:08.220Z,98481.78
2022-12-04T16:06:21.860Z,98477.72
2022-12-04T16:09:33.329Z,98484.88
2022-12-04T16:12:54.876Z,98486.06
2022-12-04T16:16:10.011Z,98478.31
2022-12-04T16:19:29.810Z,98491.00
2022-12-04T16:22:42.069Z,98493.66
2022-12-04T16:25:53.783Z,98497.22
2022-12-04T16:29:07.515Z,98497.16
2022-12-04T16:32:21.528Z,98496.28
2022-12-04T16:35:33.112Z,98498.53
2022-12-04T16:38:44.648Z,98497.81
2022-12-04T16:41:55.611Z,98493.19
2022-12-04T16:45:24.516Z,98484.66
2022-12-04T16:48:36.874Z,98482.88
2022-12-04T16:51:50.531Z,98478.56
2022-12-04T16:55:05.035Z,98475.44
2022-12-04T16:58:16.985Z,98482.59
2022-12-04T17:01:33.957Z,98484.88
2022-12-04T17:04:44.543Z,98488.25
2022-12-04T17:07:55.677Z,98492.00
2022-12-04T17:11:05.797Z,98494.53
2022-12-04T17:14:18.387Z,98501.09
2022-12-04T17:17:29.381Z,98498.84
2022-12-04T17:20:41.690Z,98488.28
2022-12-04T17:23:52.043Z,98485.75
2022-12-04T17:27:02.370Z,98487.09
2022-12-04T17:30:13.668Z,98489.50
2022-12-04T17:33:25.588Z,98482.03
2022-12-04T17:36:35.696Z,98485.63
2022-12-04T17:39:45.488Z,98482.94
2022-12-04T17:42:55.316Z,98470.16
2022-12-04T17:46:10.529Z,98469.53
2022-12-04T17:49:21.970Z,98469.34
2022-12-04T17:52:31.855Z,98463.22
2022-12-04T17:55:41.923Z,98459.38
2022-12-04T17:58:52.191Z,98460.25
2022-12-04T18:02:03.011Z,98462.38
2022-12-04T18:05:15.030Z,98455.81
2022-12-04T18:08:28.792Z,98457.88
2022-12-04T18:11:41.814Z,98452.19
2022-12-04T18:14:53.184Z,98444.13
2022-12-04T18:18:04.383Z,98444.41
2022-12-04T18:21:16.951Z,98442.94
2022-12-04T18:24:28.920Z,98439.34
2022-12-04T18:27:41.964Z,98446.66
2022-12-04T18:30:54.111Z,98454.16
2022-12-04T18:34:07.519Z,98454.59
2022-12-04T18:37:20.377Z,98466.38
2022-12-04T18:40:31.755Z,98477.59
2022-12-04T18:43:45.006Z,98476.81
2022-12-04T18:46:56.241Z,98476.41
2022-12-04T18:50:08.453Z,98478.22
2022-12-04T18:53:21.396Z,98487.13
2022-12-04T18:56:35.400Z,98493.09
2022-12-04T18:59:46.699Z,98499.97
2022-12-04T19:02:58.984Z,98495.50
2022-12-04T19:06:12.674Z,98488.94
2022-12-04T19:12:59.494Z,98495.22
2022-12-04T19:16:13.908Z,98504.16
2022-12-04T19:19:30.125Z,98497.44
2022-12-04T19:22:42.938Z,98502.66
2022-12-04T19:25:59.967Z,98502.66
2022-12-04T19:29:14.392Z,98507.16
2022-12-04T19:32:25.873Z,98499.41
2022-12-04T19:35:37.104Z,98505.63
2022-12-04T19:38:48.539Z,98511.91
2022-12-04T19:42:01.246Z,98511.47
2022-12-04T19:45:13.195Z,98517.72
2022-12-04T19:48:27.342Z,98514.41
2022-12-04T19:51:40.065Z,98517.22
2022-12-04T19:54:51.257Z,98516.63
2022-12-04T19:58:04.323Z,98518.72
2022-12-04T20:01:17.341Z,98527.38
2022-12-04T20:04:28.777Z,98536.66
2022-12-04T20:07:40.180Z,98529.50
2022-12-04T20:10:51.846Z,98530.06
2022-12-04T20:14:06.448Z,98532.50
2022-12-04T20:17:17.866Z,98540.88
2022-12-04T20:20:29.198Z,98542.94
2022-12-04T20:23:40.923Z,98545.94
2022-12-04T20:26:52.350Z,98533.41
2022-12-04T20:30:05.204Z,98536.69
2022-12-04T20:33:16.665Z,98543.53
2022-12-04T20:36:30.022Z,98544.94
2022-12-04T20:39:41.302Z,98553.00
2022-12-04T20:42:53.270Z,98556.59
2022-12-04T20:46:15.543Z,98565.38
2022-12-04T20:49:27.026Z,98563.59
2022-12-04T20:52:38.348Z,98567.75
